sensor_id;sensor_type;location;lat;lon;timestamp;P1;durP1;ratioP1;P2;durP2;ratioP2
23046;SDS011;11691;51.462;6.902;2022-10-16T00:00:35;6.68;;;3.22;;
23046;SDS011;11691;51.462;6.902;2022-10-16T00:03:01;5.60;;;2.70;;
23046;SDS011;11691;51.462;6.902;2022-10-16T00:05:27;6.15;;;2.92;;
23046;SDS011;11691;51.462;6.902;2022-10-16T00:07:54;4.75;;;2.90;;
23046;SDS011;11691;51.462;6.902;2022-10-16T00:10:20;6.82;;;3.00;;
23046;SDS011;11691;51.462;6.902;2022-10-16T00:12:46;5.68;;;2.80;;
23046;SDS011;11691;51.462;6.902;2022-10-16T00:15:12;6.80;;;3.38;;
23046;SDS011;11691;51.462;6.902;2022-10-16T00:17:38;6.03;;;2.80;;
23046;SDS011;11691;51.462;6.902;2022-10-16T00:20:04;5.82;;;3.13;;
23046;SDS011;11691;51.462;6.902;2022-10-16T00:22:30;3.53;;;2.40;;
23046;SDS011;11691;51.462;6.902;2022-10-16T00:24:56;5.70;;;2.63;;
23046;SDS011;11691;51.462;6.902;2022-10-16T00:27:22;5.57;;;2.90;;
23046;SDS011;11691;51.462;6.902;2022-10-16T00:29:51;5.35;;;2.78;;
23046;SDS011;11691;51.462;6.902;2022-10-16T00:32:18;5.03;;;2.15;;
23046;SDS011;11691;51.462;6.902;2022-10-16T00:34:44;5.15;;;2.65;;
23046;SDS011;11691;51.462;6.902;2022-10-16T00:37:10;3.65;;;2.47;;
23046;SDS011;11691;51.462;6.902;2022-10-16T00:39:36;6.90;;;2.38;;
23046;SDS011;11691;51.462;6.902;2022-10-16T00:42:02;6.63;;;2.53;;
23046;SDS011;11691;51.462;6.902;2022-10-16T00:47:22;7.97;;;2.70;;
23046;SDS011;11691;51.462;6.902;2022-10-16T00:49:50;5.72;;;2.53;;
23046;SDS011;11691;51.462;6.902;2022-10-16T00:52:17;5.45;;;2.78;;
23046;SDS011;11691;51.462;6.902;2022-10-16T00:54:43;7.00;;;3.55;;
23046;SDS011;11691;51.462;6.902;2022-10-16T00:57:11;7.75;;;3.15;;
23046;SDS011;11691;51.462;6.902;2022-10-16T00:59:38;6.57;;;3.00;;
23046;SDS011;11691;51.462;6.902;2022-10-16T01:02:06;3.30;;;2.85;;
23046;SDS011;11691;51.462;6.902;2022-10-16T01:04:35;4.43;;;2.53;;
23046;SDS011;11691;51.462;6.902;2022-10-16T01:12:38;5.22;;;2.10;;
23046;SDS011;11691;51.462;6.902;2022-10-16T01:20:33;5.47;;;2.30;;
23046;SDS011;11691;51.462;6.902;2022-10-16T01:28:09;5.25;;;2.03;;
23046;SDS011;11691;51.462;6.902;2022-10-16T01:30:37;7.43;;;2.20;;
23046;SDS011;11691;51.462;6.902;2022-10-16T01:33:09;4.22;;;2.13;;
23046;SDS011;11691;51.462;6.902;2022-10-16T01:36:14;4.50;;;2.40;;
23046;SDS011;11691;51.462;6.902;2022-10-16T01:38:41;7.95;;;1.92;;
23046;SDS011;11691;51.462;6.902;2022-10-16T01:41:09;3.95;;;2.10;;
23046;SDS011;11691;51.462;6.902;2022-10-16T01:44:06;6.18;;;2.03;;
23046;SDS011;11691;51.462;6.902;2022-10-16T01:46:35;4.07;;;1.98;;
23046;SDS011;11691;51.462;6.902;2022-10-16T01:49:02;4.07;;;1.83;;
23046;SDS011;11691;51.462;6.902;2022-10-16T01:51:28;5.20;;;2.15;;
23046;SDS011;11691;51.462;6.902;2022-10-16T01:53:55;5.75;;;1.70;;
23046;SDS011;11691;51.462;6.902;2022-10-16T01:56:22;2.05;;;1.70;;
23046;SDS011;11691;51.462;6.902;2022-10-16T01:59:01;2.97;;;1.63;;
23046;SDS011;11691;51.462;6.902;2022-10-16T02:01:42;6.20;;;1.70;;
23046;SDS011;11691;51.462;6.902;2022-10-16T02:04:12;3.67;;;1.60;;
23046;SDS011;11691;51.462;6.902;2022-10-16T02:06:40;6.80;;;1.60;;
23046;SDS011;11691;51.462;6.902;2022-10-16T02:09:06;2.03;;;1.48;;
23046;SDS011;11691;51.462;6.902;2022-10-16T02:11:32;2.40;;;1.48;;
23046;SDS011;11691;51.462;6.902;2022-10-16T02:14:02;3.33;;;1.45;;
23046;SDS011;11691;51.462;6.902;2022-10-16T02:16:33;6.25;;;1.45;;
23046;SDS011;11691;51.462;6.902;2022-10-16T02:18:59;2.33;;;1.60;;
23046;SDS011;11691;51.462;6.902;2022-10-16T02:21:26;4.75;;;1.70;;
23046;SDS011;11691;51.462;6.902;2022-10-16T02:23:58;4.57;;;1.35;;
23046;SDS011;11691;51.462;6.902;2022-10-16T02:26:27;5.72;;;1.55;;
23046;SDS011;11691;51.462;6.902;2022-10-16T02:28:55;2.78;;;1.45;;
23046;SDS011;11691;51.462;6.902;2022-10-16T02:31:28;5.10;;;1.95;;
23046;SDS011;11691;51.462;6.902;2022-10-16T02:33:56;4.45;;;1.42;;
23046;SDS011;11691;51.462;6.902;2022-10-16T02:36:23;3.15;;;1.45;;
23046;SDS011;11691;51.462;6.902;2022-10-16T02:38:50;3.08;;;1.48;;
23046;SDS011;11691;51.462;6.902;2022-10-16T02:41:17;3.50;;;1.80;;
23046;SDS011;11691;51.462;6.902;2022-10-16T02:43:43;2.83;;;1.42;;
23046;SDS011;11691;51.462;6.902;2022-10-16T02:46:09;3.45;;;1.67;;
23046;SDS011;11691;51.462;6.902;2022-10-16T02:48:35;3.50;;;1.45;;
23046;SDS011;11691;51.462;6.902;2022-10-16T02:51:01;1.70;;;1.23;;
23046;SDS011;11691;51.462;6.902;2022-10-16T02:53:27;2.08;;;1.42;;
23046;SDS011;11691;51.462;6.902;2022-10-16T02:55:53;3.90;;;1.45;;
23046;SDS011;11691;51.462;6.902;2022-10-16T02:58:19;2.63;;;1.50;;
23046;SDS011;11691;51.462;6.902;2022-10-16T03:00:45;3.00;;;1.38;;
23046;SDS011;11691;51.462;6.902;2022-10-16T03:03:11;4.13;;;1.33;;
23046;SDS011;11691;51.462;6.902;2022-10-16T03:05:37;1.58;;;1.35;;
23046;SDS011;11691;51.462;6.902;2022-10-16T03:08:03;3.97;;;1.38;;
23046;SDS011;11691;51.462;6.902;2022-10-16T03:10:29;3.70;;;1.15;;
23046;SDS011;11691;51.462;6.902;2022-10-16T03:12:55;1.98;;;1.27;;
23046;SDS011;11691;51.462;6.902;2022-10-16T03:15:21;2.25;;;1.40;;
23046;SDS011;11691;51.462;6.902;2022-10-16T03:17:47;2.35;;;1.40;;
23046;SDS011;11691;51.462;6.902;2022-10-16T03:20:13;3.60;;;1.20;;
23046;SDS011;11691;51.462;6.902;2022-10-16T03:22:39;3.03;;;1.13;;
23046;SDS011;11691;51.462;6.902;2022-10-16T03:25:06;2.25;;;1.35;;
23046;SDS011;11691;51.462;6.902;2022-10-16T03:27:32;2.05;;;1.20;;
23046;SDS011;11691;51.462;6.902;2022-10-16T03:29:58;2.33;;;1.10;;
23046;SDS011;11691;51.462;6.902;2022-10-16T03:32:24;2.25;;;1.23;;
23046;SDS011;11691;51.462;6.902;2022-10-16T03:34:50;2.53;;;1.25;;
23046;SDS011;11691;51.462;6.902;2022-10-16T03:37:17;1.50;;;1.10;;
23046;SDS011;11691;51.462;6.902;2022-10-16T03:39:43;1.35;;;1.17;;
23046;SDS011;11691;51.462;6.902;2022-10-16T03:42:09;4.60;;;1.30;;
23046;SDS011;11691;51.462;6.902;2022-10-16T03:44:35;2.83;;;1.00;;
23046;SDS011;11691;51.462;6.902;2022-10-16T03:47:01;1.95;;;1.10;;
23046;SDS011;11691;51.462;6.902;2022-10-16T03:49:27;1.20;;;1.08;;
23046;SDS011;11691;51.462;6.902;2022-10-16T03:51:53;3.17;;;1.15;;
23046;SDS011;11691;51.462;6.902;2022-10-16T03:54:19;2.53;;;1.10;;
23046;SDS011;11691;51.462;6.902;2022-10-16T03:56:47;3.75;;;1.38;;
23046;SDS011;11691;51.462;6.902;2022-10-16T03:59:13;3.85;;;1.30;;
23046;SDS011;11691;51.462;6.902;2022-10-16T04:01:39;3.90;;;1.30;;
23046;SDS011;11691;51.462;6.902;2022-10-16T04:04:05;3.55;;;1.20;;
23046;SDS011;11691;51.462;6.902;2022-10-16T04:06:31;3.78;;;1.30;;
23046;SDS011;11691;51.462;6.902;2022-10-16T04:08:57;2.30;;;1.20;;
23046;SDS011;11691;51.462;6.902;2022-10-16T04:11:23;1.88;;;1.30;;
23046;SDS011;11691;51.462;6.902;2022-10-16T04:13:49;2.13;;;1.00;;
23046;SDS011;11691;51.462;6.902;2022-10-16T04:16:15;2.80;;;1.27;;
23046;SDS011;11691;51.462;6.902;2022-10-16T04:18:41;2.40;;;1.40;;
23046;SDS011;11691;51.462;6.902;2022-10-16T04:21:07;2.80;;;1.58;;
23046;SDS011;11691;51.462;6.902;2022-10-16T04:23:33;1.58;;;1.25;;
23046;SDS011;11691;51.462;6.902;2022-10-16T04:25:59;2.75;;;1.40;;
23046;SDS011;11691;51.462;6.902;2022-10-16T04:28:25;2.67;;;1.77;;
23046;SDS011;11691;51.462;6.902;2022-10-16T04:30:51;3.25;;;1.40;;
23046;SDS011;11691;51.462;6.902;2022-10-16T04:33:17;2.00;;;1.40;;
23046;SDS011;11691;51.462;6.902;2022-10-16T04:35:43;3.00;;;1.30;;
23046;SDS011;11691;51.462;6.902;2022-10-16T04:38:09;5.72;;;1.80;;
23046;SDS011;11691;51.462;6.902;2022-10-16T04:40:35;2.03;;;1.42;;
23046;SDS011;11691;51.462;6.902;2022-10-16T04:43:04;2.63;;;1.40;;
23046;SDS011;11691;51.462;6.902;2022-10-16T04:45:30;5.13;;;1.55;;
23046;SDS011;11691;51.462;6.902;2022-10-16T04:47:57;3.35;;;1.42;;
23046;SDS011;11691;51.462;6.902;2022-10-16T04:50:23;5.00;;;1.45;;
23046;SDS011;11691;51.462;6.902;2022-10-16T04:52:49;3.92;;;1.67;;
23046;SDS011;11691;51.462;6.902;2022-10-16T04:55:15;2.65;;;1.25;;
23046;SDS011;11691;51.462;6.902;2022-10-16T04:57:41;2.03;;;1.30;;
23046;SDS011;11691;51.462;6.902;2022-10-16T05:00:08;3.33;;;1.60;;
23046;SDS011;11691;51.462;6.902;2022-10-16T05:02:34;4.18;;;2.45;;
23046;SDS011;11691;51.462;6.902;2022-10-16T05:05:00;9.82;;;1.70;;
23046;SDS011;11691;51.462;6.902;2022-10-16T05:07:26;1.73;;;1.30;;
23046;SDS011;11691;51.462;6.902;2022-10-16T05:09:52;1.52;;;1.40;;
23046;SDS011;11691;51.462;6.902;2022-10-16T05:12:18;1.50;;;1.23;;
23046;SDS011;11691;51.462;6.902;2022-10-16T05:14:44;2.80;;;1.30;;
23046;SDS011;11691;51.462;6.902;2022-10-16T05:17:10;1.50;;;1.40;;
23046;SDS011;11691;51.462;6.902;2022-10-16T05:19:36;2.05;;;1.52;;
23046;SDS011;11691;51.462;6.902;2022-10-16T05:22:02;1.98;;;1.20;;
23046;SDS011;11691;51.462;6.902;2022-10-16T05:24:28;1.65;;;1.25;;
23046;SDS011;11691;51.462;6.902;2022-10-16T05:26:54;3.08;;;1.42;;
23046;SDS011;11691;51.462;6.902;2022-10-16T05:29:20;1.60;;;1.20;;
23046;SDS011;11691;51.462;6.902;2022-10-16T05:31:46;2.85;;;1.55;;
23046;SDS011;11691;51.462;6.902;2022-10-16T05:34:12;3.35;;;1.48;;
23046;SDS011;11691;51.462;6.902;2022-10-16T05:36:38;3.90;;;1.60;;
23046;SDS011;11691;51.462;6.902;2022-10-16T05:39:04;2.65;;;1.08;;
23046;SDS011;11691;51.462;6.902;2022-10-16T05:41:30;4.25;;;1.40;;
23046;SDS011;11691;51.462;6.902;2022-10-16T05:43:56;1.95;;;1.40;;
23046;SDS011;11691;51.462;6.902;2022-10-16T05:46:22;2.85;;;1.35;;
23046;SDS011;11691;51.462;6.902;2022-10-16T05:48:51;2.58;;;1.20;;
23046;SDS011;11691;51.462;6.902;2022-10-16T05:51:17;3.67;;;1.40;;
23046;SDS011;11691;51.462;6.902;2022-10-16T05:53:43;5.25;;;1.70;;
23046;SDS011;11691;51.462;6.902;2022-10-16T05:56:09;2.58;;;1.35;;
23046;SDS011;11691;51.462;6.902;2022-10-16T05:58:36;3.22;;;1.40;;
23046;SDS011;11691;51.462;6.902;2022-10-16T06:01:12;1.95;;;1.27;;
23046;SDS011;11691;51.462;6.902;2022-10-16T06:03:40;1.30;;;1.10;;
23046;SDS011;11691;51.462;6.902;2022-10-16T06:06:13;2.97;;;1.50;;
23046;SDS011;11691;51.462;6.902;2022-10-16T06:08:40;1.92;;;1.33;;
23046;SDS011;11691;51.462;6.902;2022-10-16T06:11:08;2.42;;;1.50;;
23046;SDS011;11691;51.462;6.902;2022-10-16T06:13:35;3.70;;;1.40;;
23046;SDS011;11691;51.462;6.902;2022-10-16T06:16:01;2.45;;;1.40;;
23046;SDS011;11691;51.462;6.902;2022-10-16T06:18:27;2.13;;;1.58;;
23046;SDS011;11691;51.462;6.902;2022-10-16T06:20:54;7.60;;;1.38;;
23046;SDS011;11691;51.462;6.902;2022-10-16T06:23:20;1.60;;;1.40;;
23046;SDS011;11691;51.462;6.902;2022-10-16T06:25:46;2.78;;;1.45;;
23046;SDS011;11691;51.462;6.902;2022-10-16T06:28:13;1.85;;;1.45;;
23046;SDS011;11691;51.462;6.902;2022-10-16T06:30:39;5.45;;;1.88;;
23046;SDS011;11691;51.462;6.902;2022-10-16T06:33:05;2.00;;;1.38;;
23046;SDS011;11691;51.462;6.902;2022-10-16T06:35:31;2.17;;;1.50;;
23046;SDS011;11691;51.462;6.902;2022-10-16T06:37:57;1.67;;;1.40;;
23046;SDS011;11691;51.462;6.902;2022-10-16T06:40:23;2.05;;;1.23;;
23046;SDS011;11691;51.462;6.902;2022-10-16T06:42:49;3.40;;;1.70;;
23046;SDS011;11691;51.462;6.902;2022-10-16T06:45:16;2.65;;;1.00;;
23046;SDS011;11691;51.462;6.902;2022-10-16T06:47:42;1.42;;;1.20;;
23046;SDS011;11691;51.462;6.902;2022-10-16T06:50:08;5.45;;;1.50;;
23046;SDS011;11691;51.462;6.902;2022-10-16T06:52:34;3.70;;;1.52;;
23046;SDS011;11691;51.462;6.902;2022-10-16T06:55:00;4.93;;;1.70;;
23046;SDS011;11691;51.462;6.902;2022-10-16T06:57:27;4.18;;;1.50;;
23046;SDS011;11691;51.462;6.902;2022-10-16T06:59:53;4.85;;;1.60;;
23046;SDS011;11691;51.462;6.902;2022-10-16T07:02:19;3.78;;;2.20;;
23046;SDS011;11691;51.462;6.902;2022-10-16T07:04:45;3.70;;;1.90;;
23046;SDS011;11691;51.462;6.902;2022-10-16T07:07:11;2.72;;;1.80;;
23046;SDS011;11691;51.462;6.902;2022-10-16T07:09:37;2.50;;;1.60;;
23046;SDS011;11691;51.462;6.902;2022-10-16T07:12:03;3.40;;;1.42;;
23046;SDS011;11691;51.462;6.902;2022-10-16T07:14:29;2.03;;;1.55;;
23046;SDS011;11691;51.462;6.902;2022-10-16T07:16:55;3.80;;;1.65;;
23046;SDS011;11691;51.462;6.902;2022-10-16T07:19:21;2.03;;;1.33;;
23046;SDS011;11691;51.462;6.902;2022-10-16T07:21:47;2.72;;;1.52;;
23046;SDS011;11691;51.462;6.902;2022-10-16T07:24:14;4.22;;;1.60;;
23046;SDS011;11691;51.462;6.902;2022-10-16T07:26:40;2.92;;;1.48;;
23046;SDS011;11691;51.462;6.902;2022-10-16T07:29:14;2.65;;;1.48;;
23046;SDS011;11691;51.462;6.902;2022-10-16T07:31:41;5.47;;;1.70;;
23046;SDS011;11691;51.462;6.902;2022-10-16T07:34:07;3.13;;;1.70;;
23046;SDS011;11691;51.462;6.902;2022-10-16T07:36:33;1.65;;;1.35;;
23046;SDS011;11691;51.462;6.902;2022-10-16T07:38:59;3.30;;;1.48;;
23046;SDS011;11691;51.462;6.902;2022-10-16T07:41:25;2.13;;;1.48;;
23046;SDS011;11691;51.462;6.902;2022-10-16T07:43:52;2.40;;;1.42;;
23046;SDS011;11691;51.462;6.902;2022-10-16T07:46:19;4.72;;;1.65;;
23046;SDS011;11691;51.462;6.902;2022-10-16T07:48:45;2.88;;;1.30;;
23046;SDS011;11691;51.462;6.902;2022-10-16T07:51:13;3.85;;;1.48;;
23046;SDS011;11691;51.462;6.902;2022-10-16T07:53:40;2.10;;;1.30;;
23046;SDS011;11691;51.462;6.902;2022-10-16T07:56:06;1.92;;;1.00;;
23046;SDS011;11691;51.462;6.902;2022-10-16T07:58:33;3.20;;;1.20;;
23046;SDS011;11691;51.462;6.902;2022-10-16T08:01:05;5.70;;;1.20;;
23046;SDS011;11691;51.462;6.902;2022-10-16T08:03:32;2.28;;;1.20;;
23046;SDS011;11691;51.462;6.902;2022-10-16T08:05:59;0.98;;;0.80;;
23046;SDS011;11691;51.462;6.902;2022-10-16T08:08:25;2.78;;;1.05;;
23046;SDS011;11691;51.462;6.902;2022-10-16T08:10:51;3.58;;;1.23;;
23046;SDS011;11691;51.462;6.902;2022-10-16T08:13:17;1.48;;;1.00;;
23046;SDS011;11691;51.462;6.902;2022-10-16T08:15:43;2.33;;;1.02;;
23046;SDS011;11691;51.462;6.902;2022-10-16T08:18:10;2.70;;;1.08;;
23046;SDS011;11691;51.462;6.902;2022-10-16T08:20:37;3.95;;;1.00;;
23046;SDS011;11691;51.462;6.902;2022-10-16T08:23:03;3.55;;;1.13;;
23046;SDS011;11691;51.462;6.902;2022-10-16T08:25:29;5.32;;;0.98;;
23046;SDS011;11691;51.462;6.902;2022-10-16T08:27:55;2.63;;;0.70;;
23046;SDS011;11691;51.462;6.902;2022-10-16T08:30:22;4.22;;;1.15;;
23046;SDS011;11691;51.462;6.902;2022-10-16T08:32:48;2.00;;;0.93;;
23046;SDS011;11691;51.462;6.902;2022-10-16T08:35:15;3.53;;;0.70;;
23046;SDS011;11691;51.462;6.902;2022-10-16T08:37:41;3.50;;;1.20;;
23046;SDS011;11691;51.462;6.902;2022-10-16T08:40:15;3.63;;;1.00;;
23046;SDS011;11691;51.462;6.902;2022-10-16T08:43:06;3.10;;;0.85;;
23046;SDS011;11691;51.462;6.902;2022-10-16T08:51:20;1.55;;;0.73;;
23046;SDS011;11691;51.462;6.902;2022-10-16T08:53:56;3.17;;;0.80;;
23046;SDS011;11691;51.462;6.902;2022-10-16T08:56:42;5.05;;;1.55;;
23046;SDS011;11691;51.462;6.902;2022-10-16T08:59:12;4.70;;;0.98;;
23046;SDS011;11691;51.462;6.902;2022-10-16T09:01:46;2.30;;;0.95;;
23046;SDS011;11691;51.462;6.902;2022-10-16T09:12:28;4.53;;;1.30;;
23046;SDS011;11691;51.462;6.902;2022-10-16T09:19:51;2.65;;;1.10;;
23046;SDS011;11691;51.462;6.902;2022-10-16T09:22:34;2.63;;;1.30;;
23046;SDS011;11691;51.462;6.902;2022-10-16T09:25:00;4.00;;;1.42;;
23046;SDS011;11691;51.462;6.902;2022-10-16T09:27:30;5.82;;;1.90;;
23046;SDS011;11691;51.462;6.902;2022-10-16T09:29:56;6.90;;;1.80;;
23046;SDS011;11691;51.462;6.902;2022-10-16T09:32:22;5.07;;;1.15;;
23046;SDS011;11691;51.462;6.902;2022-10-16T09:34:49;1.80;;;0.85;;
23046;SDS011;11691;51.462;6.902;2022-10-16T09:37:17;2.67;;;0.98;;
23046;SDS011;11691;51.462;6.902;2022-10-16T09:39:54;4.38;;;0.95;;
23046;SDS011;11691;51.462;6.902;2022-10-16T09:42:21;3.20;;;1.13;;
23046;SDS011;11691;51.462;6.902;2022-10-16T09:44:50;2.13;;;1.10;;
23046;SDS011;11691;51.462;6.902;2022-10-16T09:47:19;5.13;;;0.90;;
23046;SDS011;11691;51.462;6.902;2022-10-16T09:52:23;4.82;;;0.90;;
23046;SDS011;11691;51.462;6.902;2022-10-16T09:54:51;2.47;;;0.90;;
23046;SDS011;11691;51.462;6.902;2022-10-16T09:57:19;4.65;;;1.13;;
23046;SDS011;11691;51.462;6.902;2022-10-16T09:59:46;4.65;;;0.90;;
23046;SDS011;11691;51.462;6.902;2022-10-16T10:02:13;4.20;;;1.30;;
23046;SDS011;11691;51.462;6.902;2022-10-16T10:04:42;3.85;;;1.00;;
23046;SDS011;11691;51.462;6.902;2022-10-16T10:07:17;2.92;;;1.00;;
23046;SDS011;11691;51.462;6.902;2022-10-16T10:09:44;3.70;;;0.88;;
23046;SDS011;11691;51.462;6.902;2022-10-16T10:12:29;3.30;;;0.90;;
23046;SDS011;11691;51.462;6.902;2022-10-16T10:14:58;3.90;;;0.90;;
23046;SDS011;11691;51.462;6.902;2022-10-16T10:17:29;2.17;;;0.80;;
23046;SDS011;11691;51.462;6.902;2022-10-16T10:35:14;2.05;;;0.70;;
23046;SDS011;11691;51.462;6.902;2022-10-16T10:43:19;2.75;;;0.50;;
23046;SDS011;11691;51.462;6.902;2022-10-16T10:45:49;1.95;;;0.65;;
23046;SDS011;11691;51.462;6.902;2022-10-16T10:53:36;2.78;;;0.70;;
23046;SDS011;11691;51.462;6.902;2022-10-16T11:01:32;3.65;;;0.65;;
23046;SDS011;11691;51.462;6.902;2022-10-16T11:07:11;2.47;;;0.70;;
23046;SDS011;11691;51.462;6.902;2022-10-16T11:09:41;5.05;;;0.90;;
23046;SDS011;11691;51.462;6.902;2022-10-16T11:15:04;2.72;;;0.60;;
23046;SDS011;11691;51.462;6.902;2022-10-16T11:17:44;1.00;;;0.50;;
23046;SDS011;11691;51.462;6.902;2022-10-16T11:20:28;2.67;;;0.57;;
23046;SDS011;11691;51.462;6.902;2022-10-16T11:22:59;2.63;;;0.57;;
23046;SDS011;11691;51.462;6.902;2022-10-16T11:25:33;1.55;;;0.50;;
23046;SDS011;11691;51.462;6.902;2022-10-16T11:28:12;2.13;;;0.70;;
23046;SDS011;11691;51.462;6.902;2022-10-16T11:30:52;4.63;;;0.80;;
23046;SDS011;11691;51.462;6.902;2022-10-16T11:33:23;2.58;;;0.70;;
23046;SDS011;11691;51.462;6.902;2022-10-16T11:41:20;4.30;;;0.90;;
23046;SDS011;11691;51.462;6.902;2022-10-16T11:43:48;2.33;;;0.95;;
23046;SDS011;11691;51.462;6.902;2022-10-16T11:46:31;2.20;;;0.80;;
23046;SDS011;11691;51.462;6.902;2022-10-16T11:49:09;2.13;;;0.70;;
23046;SDS011;11691;51.462;6.902;2022-10-16T11:51:41;5.10;;;1.02;;
23046;SDS011;11691;51.462;6.902;2022-10-16T11:57:14;2.92;;;0.90;;
23046;SDS011;11691;51.462;6.902;2022-10-16T12:05:28;2.83;;;1.08;;
23046;SDS011;11691;51.462;6.902;2022-10-16T12:08:10;2.85;;;1.10;;
23046;SDS011;11691;51.462;6.902;2022-10-16T12:10:38;1.67;;;0.90;;
23046;SDS011;11691;51.462;6.902;2022-10-16T12:13:25;3.90;;;0.90;;
23046;SDS011;11691;51.462;6.902;2022-10-16T12:15:50;2.25;;;0.85;;
23046;SDS011;11691;51.462;6.902;2022-10-16T12:18:22;3.40;;;0.82;;
23046;SDS011;11691;51.462;6.902;2022-10-16T12:20:57;3.20;;;1.05;;
23046;SDS011;11691;51.462;6.902;2022-10-16T12:23:24;2.70;;;0.88;;
23046;SDS011;11691;51.462;6.902;2022-10-16T12:25:57;4.70;;;0.90;;
23046;SDS011;11691;51.462;6.902;2022-10-16T12:28:27;1.42;;;0.93;;
23046;SDS011;11691;51.462;6.902;2022-10-16T12:33:21;2.95;;;1.00;;
23046;SDS011;11691;51.462;6.902;2022-10-16T12:35:48;3.20;;;1.00;;
23046;SDS011;11691;51.462;6.902;2022-10-16T12:38:24;3.55;;;1.33;;
23046;SDS011;11691;51.462;6.902;2022-10-16T12:41:02;3.38;;;1.00;;
23046;SDS011;11691;51.462;6.902;2022-10-16T12:46:05;5.03;;;1.08;;
23046;SDS011;11691;51.462;6.902;2022-10-16T12:48:44;4.13;;;1.38;;
23046;SDS011;11691;51.462;6.902;2022-10-16T12:54:00;6.13;;;1.30;;
23046;SDS011;11691;51.462;6.902;2022-10-16T12:56:32;4.68;;;1.48;;
23046;SDS011;11691;51.462;6.902;2022-10-16T12:59:17;3.40;;;0.98;;
23046;SDS011;11691;51.462;6.902;2022-10-16T13:07:41;6.07;;;0.80;;
23046;SDS011;11691;51.462;6.902;2022-10-16T13:10:19;2.17;;;0.80;;
23046;SDS011;11691;51.462;6.902;2022-10-16T13:12:59;3.00;;;0.90;;
23046;SDS011;11691;51.462;6.902;2022-10-16T13:15:57;7.25;;;1.08;;
23046;SDS011;11691;51.462;6.902;2022-10-16T13:20:56;3.05;;;1.00;;
23046;SDS011;11691;51.462;6.902;2022-10-16T13:23:26;4.70;;;1.00;;
23046;SDS011;11691;51.462;6.902;2022-10-16T13:28:43;3.38;;;0.82;;
23046;SDS011;11691;51.462;6.902;2022-10-16T13:31:20;3.05;;;1.00;;
23046;SDS011;11691;51.462;6.902;2022-10-16T13:33:48;3.08;;;0.63;;
23046;SDS011;11691;51.462;6.902;2022-10-16T13:36:22;1.90;;;0.70;;
23046;SDS011;11691;51.462;6.902;2022-10-16T13:38:48;1.60;;;0.57;;
23046;SDS011;11691;51.462;6.902;2022-10-16T13:41:17;6.07;;;0.90;;
23046;SDS011;11691;51.462;6.902;2022-10-16T13:43:49;6.60;;;0.70;;
23046;SDS011;11691;51.462;6.902;2022-10-16T13:46:19;2.42;;;0.50;;
23046;SDS011;11691;51.462;6.902;2022-10-16T13:49:05;3.58;;;1.05;;
23046;SDS011;11691;51.462;6.902;2022-10-16T13:51:32;5.53;;;0.95;;
23046;SDS011;11691;51.462;6.902;2022-10-16T13:53:58;3.45;;;0.90;;
23046;SDS011;11691;51.462;6.902;2022-10-16T13:56:25;2.70;;;0.70;;
23046;SDS011;11691;51.462;6.902;2022-10-16T13:59:05;1.25;;;0.40;;
23046;SDS011;11691;51.462;6.902;2022-10-16T14:01:35;2.33;;;0.70;;
23046;SDS011;11691;51.462;6.902;2022-10-16T14:04:10;1.42;;;0.52;;
23046;SDS011;11691;51.462;6.902;2022-10-16T14:06:40;3.83;;;0.80;;
23046;SDS011;11691;51.462;6.902;2022-10-16T14:09:08;2.17;;;0.55;;
23046;SDS011;11691;51.462;6.902;2022-10-16T14:11:44;3.60;;;0.60;;
23046;SDS011;11691;51.462;6.902;2022-10-16T14:14:14;3.92;;;0.77;;
23046;SDS011;11691;51.462;6.902;2022-10-16T14:16:41;2.15;;;0.65;;
23046;SDS011;11691;51.462;6.902;2022-10-16T14:19:27;3.45;;;0.80;;
23046;SDS011;11691;51.462;6.902;2022-10-16T14:21:54;4.32;;;0.88;;
23046;SDS011;11691;51.462;6.902;2022-10-16T14:26:54;3.00;;;0.57;;
23046;SDS011;11691;51.462;6.902;2022-10-16T14:29:21;2.05;;;0.50;;
23046;SDS011;11691;51.462;6.902;2022-10-16T14:31:54;1.95;;;0.60;;
23046;SDS011;11691;51.462;6.902;2022-10-16T14:34:34;2.10;;;0.38;;
23046;SDS011;11691;51.462;6.902;2022-10-16T14:37:02;2.00;;;0.60;;
23046;SDS011;11691;51.462;6.902;2022-10-16T14:39:32;1.63;;;0.50;;
23046;SDS011;11691;51.462;6.902;2022-10-16T14:41:58;2.80;;;0.75;;
23046;SDS011;11691;51.462;6.902;2022-10-16T14:44:42;1.10;;;0.52;;
23046;SDS011;11691;51.462;6.902;2022-10-16T14:47:09;2.95;;;0.60;;
23046;SDS011;11691;51.462;6.902;2022-10-16T14:49:38;1.73;;;0.73;;
23046;SDS011;11691;51.462;6.902;2022-10-16T14:52:08;0.70;;;0.50;;
23046;SDS011;11691;51.462;6.902;2022-10-16T14:54:35;1.45;;;0.60;;
23046;SDS011;11691;51.462;6.902;2022-10-16T14:57:01;1.63;;;0.47;;
23046;SDS011;11691;51.462;6.902;2022-10-16T14:59:32;2.50;;;0.50;;
23046;SDS011;11691;51.462;6.902;2022-10-16T15:02:47;1.17;;;0.40;;
23046;SDS011;11691;51.462;6.902;2022-10-16T15:04:58;1.48;;;0.60;;
23046;SDS011;11691;51.462;6.902;2022-10-16T15:07:45;1.08;;;0.60;;
23046;SDS011;11691;51.462;6.902;2022-10-16T15:10:14;3.47;;;0.60;;
23046;SDS011;11691;51.462;6.902;2022-10-16T15:12:41;5.28;;;0.85;;
23046;SDS011;11691;51.462;6.902;2022-10-16T15:17:56;2.45;;;0.93;;
23046;SDS011;11691;51.462;6.902;2022-10-16T15:20:26;0.95;;;0.60;;
23046;SDS011;11691;51.462;6.902;2022-10-16T15:22:52;2.03;;;0.68;;
23046;SDS011;11691;51.462;6.902;2022-10-16T15:25:32;2.75;;;0.77;;
23046;SDS011;11691;51.462;6.902;2022-10-16T15:27:58;6.95;;;0.90;;
23046;SDS011;11691;51.462;6.902;2022-10-16T15:30:25;2.58;;;0.90;;
23046;SDS011;11691;51.462;6.902;2022-10-16T15:32:51;2.92;;;0.88;;
23046;SDS011;11691;51.462;6.902;2022-10-16T15:35:17;2.17;;;0.80;;
23046;SDS011;11691;51.462;6.902;2022-10-16T15:37:43;4.88;;;0.95;;
23046;SDS011;11691;51.462;6.902;2022-10-16T15:40:10;1.73;;;0.88;;
23046;SDS011;11691;51.462;6.902;2022-10-16T15:42:36;2.55;;;0.68;;
23046;SDS011;11691;51.462;6.902;2022-10-16T15:45:03;3.80;;;1.40;;
23046;SDS011;11691;51.462;6.902;2022-10-16T15:47:29;4.63;;;1.38;;
23046;SDS011;11691;51.462;6.902;2022-10-16T15:49:55;2.92;;;1.35;;
23046;SDS011;11691;51.462;6.902;2022-10-16T15:52:21;2.35;;;1.00;;
23046;SDS011;11691;51.462;6.902;2022-10-16T15:54:47;7.20;;;1.70;;
23046;SDS011;11691;51.462;6.902;2022-10-16T15:57:13;3.53;;;1.40;;
23046;SDS011;11691;51.462;6.902;2022-10-16T15:59:39;3.67;;;1.70;;
23046;SDS011;11691;51.462;6.902;2022-10-16T16:02:05;3.88;;;1.60;;
23046;SDS011;11691;51.462;6.902;2022-10-16T16:04:31;3.78;;;1.70;;
23046;SDS011;11691;51.462;6.902;2022-10-16T16:06:57;4.75;;;1.58;;
23046;SDS011;11691;51.462;6.902;2022-10-16T16:09:23;5.88;;;2.47;;
23046;SDS011;11691;51.462;6.902;2022-10-16T16:11:49;6.70;;;2.17;;
23046;SDS011;11691;51.462;6.902;2022-10-16T16:14:17;4.38;;;2.22;;
23046;SDS011;11691;51.462;6.902;2022-10-16T16:16:43;3.67;;;1.80;;
23046;SDS011;11691;51.462;6.902;2022-10-16T16:19:08;5.63;;;2.65;;
23046;SDS011;11691;51.462;6.902;2022-10-16T16:21:34;4.72;;;2.22;;
23046;SDS011;11691;51.462;6.902;2022-10-16T16:24:00;4.68;;;2.30;;
23046;SDS011;11691;51.462;6.902;2022-10-16T16:26:32;4.00;;;2.00;;
23046;SDS011;11691;51.462;6.902;2022-10-16T16:29:01;3.50;;;1.63;;
23046;SDS011;11691;51.462;6.902;2022-10-16T16:31:28;5.07;;;2.10;;
23046;SDS011;11691;51.462;6.902;2022-10-16T16:33:55;8.90;;;3.10;;
23046;SDS011;11691;51.462;6.902;2022-10-16T16:36:22;9.45;;;3.70;;
23046;SDS011;11691;51.462;6.902;2022-10-16T16:38:48;9.38;;;3.90;;
23046;SDS011;11691;51.462;6.902;2022-10-16T16:41:15;16.35;;;4.70;;
23046;SDS011;11691;51.462;6.902;2022-10-16T16:43:42;12.27;;;3.63;;
23046;SDS011;11691;51.462;6.902;2022-10-16T16:46:08;9.30;;;3.83;;
23046;SDS011;11691;51.462;6.902;2022-10-16T16:48:34;7.68;;;3.38;;
23046;SDS011;11691;51.462;6.902;2022-10-16T16:51:07;5.20;;;3.08;;
23046;SDS011;11691;51.462;6.902;2022-10-16T16:53:33;8.40;;;3.35;;